createdAt,value
2022-12-23T10:24:13.726Z,6.90
2022-12-23T10:29:19.286Z,7.20
2022-12-23T10:34:19.909Z,7.70
2022-12-23T10:39:22.297Z,8.00
2022-12-23T10:44:56.052Z,8.40
2022-12-23T10:50:00.342Z,8.80
2022-12-23T10:54:55.329Z,9.20
2022-12-23T10:59:49.238Z,9.70
2022-12-23T11:04:46.884Z,10.10
2022-12-23T11:09:43.404Z,10.30
2022-12-23T11:14:41.817Z,10.60
2022-12-23T11:19:35.325Z,10.90
2022-12-23T11:24:36.793Z,11.30
2022-12-23T11:29:38.034Z,11.60
2022-12-23T11:34:37.961Z,11.90
2022-12-23T11:39:34.071Z,12.40
2022-12-23T11:44:30.946Z,12.90
2022-12-23T11:49:26.958Z,13.50
2022-12-23T11:54:23.035Z,13.90
2022-12-23T11:59:35.742Z,13.40
2022-12-23T12:04:34.500Z,13.30
2022-12-23T12:09:31.790Z,13.50
2022-12-23T12:14:33.297Z,14.10
2022-12-23T12:19:31.741Z,14.50
2022-12-23T12:24:30.839Z,14.80
2022-12-23T12:29:34.244Z,15.00
2022-12-23T12:34:37.759Z,15.00
2022-12-23T12:39:37.524Z,14.80
2022-12-23T12:44:39.650Z,15.00
2022-12-23T12:49:37.602Z,15.00
2022-12-23T12:54:40.794Z,15.00
2022-12-23T12:59:37.179Z,15.10
2022-12-23T13:05:04.090Z,15.20
2022-12-23T13:10:06.946Z,15.30
2022-12-23T13:15:05.992Z,15.50
2022-12-23T13:20:10.381Z,15.30
2022-12-23T13:25:11.361Z,14.70
2022-12-23T13:30:14.032Z,14.40
2022-12-23T13:35:24.341Z,13.90
2022-12-23T13:40:31.141Z,13.30
2022-12-23T13:45:29.205Z,12.90
2022-12-23T13:50:30.745Z,12.70
2022-12-23T13:55:57.249Z,12.40
2022-12-23T14:00:59.865Z,12.10
2022-12-23T14:05:54.856Z,11.90
2022-12-23T14:10:56.460Z,11.70
2022-12-23T14:16:00.970Z,11.50
2022-12-23T14:21:05.973Z,11.20
2022-12-23T14:26:22.335Z,11.10
2022-12-23T14:31:40.848Z,11.00
2022-12-23T14:36:35.497Z,10.80
2022-12-23T14:41:52.232Z,10.60
2022-12-23T14:47:04.191Z,10.40
2022-12-23T14:51:57.876Z,10.20
2022-12-23T14:57:11.399Z,10.00
2022-12-23T15:02:16.092Z,9.80
2022-12-23T15:07:18.639Z,9.70
2022-12-23T15:12:16.676Z,9.50
2022-12-23T15:17:18.049Z,9.20
2022-12-23T15:22:23.621Z,8.90
2022-12-23T15:27:30.277Z,8.60
2022-12-23T15:32:26.626Z,8.40
